Latest Coastal Weather Observations for Port Augusta

IDS60701

Issued at 3:21 pm CDT Thursday 30 March 2017 (issued every 10 minutes, with the page automatically refreshed every 10 minutes)

About coastal observations | Map of coastal stations | Coastal observations for SA | Marine services | Other Formats
Station Details ID: 018201 Name: PORT AUGUSTA AERO Lat: -32.51 Lon: 137.72 Height: 13.97 m
Data from the previous 72 hours. | See also: Recent months at Port Augusta
Date/Time
CDT
Temp
°C
Wind Pressure Rain since
9am
mm
Weather Cloud Vis
km
Sea
Height
m
Swell
Dir  Spd
kts
Gust
kts
hPa Trend Height
m
Period
s
Dir
30/03:00pm 18.2 SSE 15 24 1022.9 - 0.6 - Cloudy 10 - - - -
30/02:30pm 18.6 S 12 16 1023.2 - 0.6 - Partly cloudy 10 - - - -
30/02:00pm 18.3 SW 12 18 1023.8 - 0.6 - Partly cloudy 10 - - - -
30/01:30pm 16.8 WSW 12 17 1024.5 - 0.6 - Partly cloudy 10 - - - -
30/01:00pm 16.0 SW 12 17 1024.8 - 0.6 - Cloudy 10 - - - -
30/12:30pm 15.6 SW 9 13 1025.0 - 0.6 - Partly cloudy 10 - - - -
30/12:00pm 14.2 WSW 11 15 1025.1 - 0.6 Recent precip. Cloudy 10 - - - -
30/11:40am 13.0 W 8 11 1025.2 - 0.6 - Partly cloudy 10 - - - -
30/11:30am 12.7 WSW 10 13 1025.2 - 0.6 - Cloudy 6 - - - -
30/11:20am 12.5 WSW 11 13 1025.1 - 0.4 - Partly cloudy 6 - - - -
30/11:00am 13.4 WSW 8 11 1024.9 - 0.4 - Partly cloudy 10 - - - -
30/10:30am 12.1 WSW 10 12 1024.5 - 0.4 - Partly cloudy 10 - - - -
30/10:12am 12.0 WSW 8 11 1024.6 - 0.4 - Partly cloudy 10 - - - -
30/10:00am 12.0 SSW 4 5 1024.6 - 0.4 - Partly cloudy 5 - - - -
30/09:30am 11.7 WSW 6 8 1024.5 - 0.2 - Partly cloudy 5 - - - -
30/09:29am 11.7 WSW 6 8 1024.5 - 0.0 - Partly cloudy 6 - - - -
30/09:25am 11.4 W 6 9 1024.5 - 0.0 - Partly cloudy 10 - - - -
30/09:05am 11.2 W 8 10 1024.2 - 0.0 - Partly cloudy 6 - - - -
30/09:00am 11.3 W 9 11 1024.2 - 1.0 Recent precip. Cloudy 9 - - - -
30/08:52am 11.3 W 9 11 1023.9 - 1.0 - Partly cloudy 9 - - - -
30/08:30am 11.7 SW 8 12 1023.6 - 0.8 - Partly cloudy 5 - - - -
30/08:28am 11.7 WSW 8 11 1023.6 - 0.8 - Partly cloudy 6 - - - -
30/08:07am 11.8 W 6 8 1022.9 - 0.6 - Partly cloudy 10 - - - -
30/08:00am 11.6 WSW 4 6 1022.8 - 0.6 - Partly cloudy 8 - - - -
30/07:43am 11.6 SW 6 9 1022.6 - 0.6 - Partly cloudy 6 - - - -
30/07:30am 11.5 SSW 8 11 1022.5 - 0.4 - Partly cloudy 7 - - - -
30/07:29am 11.5 SSW 8 11 1022.5 - 0.4 - Partly cloudy 7 - - - -
30/07:00am 11.6 SSE 6 8 1022.0 - 0.2 - Partly cloudy 5 - - - -
30/06:58am 11.6 SSE 7 8 1022.0 - 0.2 - Partly cloudy 6 - - - -
30/06:30am 11.7 SSE 11 13 1021.7 - 0.0 - Partly cloudy 10 - - - -
30/06:00am 12.6 SSE 6 8 1021.3 - 0.0 - Cloudy 10 - - - -
30/05:30am 12.3 S 9 12 1021.0 - 0.0 - Partly cloudy 10 - - - -
30/05:00am 12.4 S 11 15 1020.4 - 0.0 - Partly cloudy 10 - - - -
30/04:30am 12.4 SW 10 14 1020.1 - 0.0 - - 10 - - - -
30/04:00am 12.1 SW 12 16 1019.9 - 0.0 - - 10 - - - -
30/03:30am 12.7 SW 15 22 1019.6 - 0.0 - - 10 - - - -
30/03:00am 12.9 SW 15 19 1019.8 - 0.0 - - 10 - - - -
30/02:30am 13.4 SW 14 20 1019.6 - 0.0 - - 10 - - - -
30/02:00am 13.4 SW 15 21 1019.6 - 0.0 - - 10 - - - -
30/01:30am 13.8 SW 14 20 1019.6 - 0.0 - - 10 - - - -
30/01:00am 14.0 SW 18 25 1019.4 - 0.0 - - 10 - - - -
30/12:30am 14.5 SW 18 23 1019.5 - 0.0 - - 10 - - - -
30/12:00am 15.1 SW 19 25 1019.2 - 0.0 - - 10 - - - -
 
Date/Time
CDT
Temp
°C
Wind Pressure Rain since
9am
mm
Weather Cloud Vis
km
Sea
Height
m
Swell
Dir  Spd
kts
Gust
kts
hPa Trend Height
m
Period
s
Dir
29/11:30pm 15.6 SW 18 25 1019.2 - 0.0 - Partly cloudy 10 - - - -
29/11:00pm 16.1 SW 19 24 1019.2 - 0.0 - Partly cloudy 10 - - - -
29/10:30pm 16.4 SW 20 25 1018.8 - 0.0 - Partly cloudy 10 - - - -
29/10:00pm 17.6 SSW 21 29 1018.3 - 0.0 - Partly cloudy 10 - - - -
29/09:46pm 18.7 SSW 17 27 1017.8 - 0.0 - Partly cloudy 10 - - - -
29/09:30pm 18.6 SW 14 17 1017.6 - 0.0 - Partly cloudy 10 - - - -
29/09:00pm 19.1 SW 18 25 1017.0 - 0.0 - Mostly clear 10 - - - -
29/08:30pm 19.5 SSW 15 21 1016.4 - 0.0 - Partly cloudy 10 - - - -
29/08:00pm 19.5 SSW 15 19 1015.7 - 0.0 - Partly cloudy 10 - - - -
29/07:30pm 19.8 S 15 19 1015.3 - 0.0 - Partly cloudy 10 - - - -
29/07:00pm 20.5 SSW 18 23 1014.8 - 0.0 - Partly cloudy 10 - - - -
29/06:30pm 20.9 S 19 24 1013.9 - 0.0 - Partly cloudy 10 - - - -
29/06:00pm 21.6 S 19 24 1013.1 - 0.0 - Cloudy 10 - - - -
29/05:30pm 22.2 SSE 19 25 1012.4 - 0.0 - Partly cloudy 10 - - - -
29/05:08pm 23.2 S 19 28 1012.0 - 0.0 - Partly cloudy 10 - - - -
29/05:00pm 26.3 SSW 18 23 1011.9 - 0.0 - Partly cloudy 10 - - - -
29/04:30pm 27.6 SW 18 24 1011.5 - 0.0 - Partly cloudy 10 - - - -
29/04:00pm 27.1 SW 20 30 1011.5 - 0.0 - Partly cloudy 10 - - - -
29/03:51pm 28.3 SW 20 30 1011.4 - 0.0 - Partly cloudy 10 - - - -
29/03:30pm 27.8 SW 21 28 1011.5 - 0.0 - Partly cloudy 10 - - - -
29/03:00pm 28.3 SW 19 27 1011.5 - 0.0 - Mostly clear 10 - - - -
29/02:30pm 27.9 SW 20 29 1011.6 - 0.0 - - 10 - - - -
29/02:00pm 27.9 SW 16 26 1012.0 - 0.0 - - 10 - - - -
29/01:30pm 26.9 SW 15 22 1012.4 - 0.0 - - 10 - - - -
29/01:00pm 26.4 SW 11 18 1013.0 - 0.0 - - 10 - - - -
29/12:30pm 24.7 SW 12 17 1013.4 - 0.0 - - 10 - - - -
29/12:00pm 24.5 SW 14 19 1013.7 - 0.0 - - 10 - - - -
29/11:30am 23.5 SW 10 17 1013.9 - 0.0 - - 10 - - - -
29/11:00am 22.0 SW 11 14 1014.2 - 0.0 - - 10 - - - -
29/10:30am 21.4 WSW 8 10 1013.9 - 0.0 - - 10 - - - -
29/10:00am 20.3 SW 8 10 1013.9 - 0.0 - - 10 - - - -
29/09:30am 19.4 SW 10 13 1013.8 - 0.0 - - 10 - - - -
29/09:00am 17.6 WSW 7 9 1013.5 - 0.0 - - 10 - - - -
29/08:30am 16.1 NNW 3 4 1013.3 - 0.0 - - 10 - - - -
29/08:00am 14.3 WSW 5 7 1013.1 - 0.0 - - 10 - - - -
29/07:30am 13.9 W 4 6 1013.2 - 0.0 - - 10 - - - -
29/07:00am 14.9 NE 3 4 1012.9 - 0.0 - - 10 - - - -
29/06:30am 15.3 E 6 7 1012.5 - 0.0 - - 10 - - - -
29/06:00am 15.4 SSW 4 6 1012.4 - 0.0 - - 10 - - - -
29/05:30am 15.6 SW 6 7 1012.3 - 0.0 - - 10 - - - -
29/05:00am 16.0 SW 9 11 1012.1 - 0.0 - - 10 - - - -
29/04:30am 16.9 SW 10 11 1012.1 - 0.0 - - 10 - - - -
29/04:00am 16.9 SW 9 11 1012.1 - 0.0 - - 10 - - - -
29/03:30am 16.6 SW 8 10 1011.9 - 0.0 - - 10 - - - -
29/03:00am 17.0 SW 7 7 1011.9 - 0.0 - - 10 - - - -
29/02:30am 17.5 SW 8 9 1012.0 - 0.0 - - 10 - - - -
29/02:00am 17.6 SSW 7 9 1011.9 - 0.0 - - 10 - - - -
29/01:30am 18.1 SW 10 13 1012.0 - 0.0 - - 10 - - - -
29/01:00am 18.4 SW 11 14 1012.3 - 0.0 - - 10 - - - -
29/12:30am 15.7 SW 4 6 1012.3 - 0.0 - - 10 - - - -
29/12:00am 15.6 WSW 6 7 1012.6 - 0.0 - - 10 - - - -
 
Date/Time
CDT
Temp
°C
Wind Pressure Rain since
9am
mm
Weather Cloud Vis
km
Sea
Height
m
Swell
Dir  Spd
kts
Gust
kts
hPa Trend Height
m
Period
s
Dir
28/11:30pm 16.7 WSW 3 5 1012.7 - 0.0 - - 10 - - - -
28/11:00pm 17.7 SSW 3 3 1012.9 - 0.0 - - 10 - - - -
28/10:30pm 17.7 E 4 6 1013.0 - 0.0 - - 10 - - - -
28/10:00pm 20.1 SE 4 6 1013.0 - 0.0 - - 10 - - - -
28/09:30pm 21.2 SSE 4 5 1013.0 - 0.0 - - 10 - - - -
28/09:00pm 21.1 SE 4 7 1012.8 - 0.0 - - 10 - - - -
28/08:30pm 22.7 SSE 7 9 1012.5 - 0.0 - - 10 - - - -
28/08:00pm 23.0 SE 8 10 1012.3 - 0.0 - - 10 - - - -
28/07:30pm 23.5 SE 8 10 1012.2 - 0.0 - - 10 - - - -
28/07:00pm 24.7 SE 8 10 1012.1 - 0.0 - - 10 - - - -
28/06:30pm 25.7 SE 10 12 1012.0 - 0.0 - - 10 - - - -
28/06:00pm 27.4 NNE 5 8 1012.1 - 0.0 - - 10 - - - -
28/05:30pm 28.3 ESE 5 8 1012.1 - 0.0 - - 10 - - - -
28/05:00pm 27.4 ESE 7 9 1012.3 - 0.0 - - 10 - - - -
28/04:30pm 27.7 E 8 13 1012.5 - 0.0 - - 10 - - - -
28/04:00pm 27.3 SE 8 12 1012.9 - 0.0 - - 10 - - - -
28/03:30pm 27.5 SE 7 9 1013.1 - 0.0 - - 10 - - - -
28/03:00pm 26.2 SSE 6 10 1013.4 - 0.0 - - 10 - - - -
28/02:30pm 26.2 S 5 8 1013.9 - 0.0 - - 10 - - - -
28/02:00pm 26.3 SSE 6 11 1014.4 - 0.0 - - 10 - - - -
28/01:30pm 25.7 SE 6 11 1014.9 - 0.0 - - 10 - - - -
28/01:00pm 24.8 S 6 9 1015.5 - 0.0 - - 10 - - - -
28/12:30pm 23.1 ESE 7 13 1016.0 - 0.0 - - 10 - - - -
28/12:00pm 23.9 ENE 5 7 1016.5 - 0.0 - - 10 - - - -
28/11:30am 22.2 SE 5 9 1016.8 - 0.0 - - 10 - - - -
28/11:00am 21.8 SE 7 10 1017.3 - 0.0 - - 10 - - - -
28/10:30am 20.8 SE 7 11 1017.3 - 0.0 - - 10 - - - -
28/10:00am 21.0 SE 5 8 1017.5 - 0.0 - - 10 - - - -
28/09:30am 20.0 SE 5 8 1017.4 - 0.0 - - 10 - - - -
28/09:00am 18.8 SW 3 4 1017.0 - 0.0 - - 10 - - - -
28/08:30am 16.9 SW 5 5 1016.9 - 0.0 - - 10 - - - -
28/08:00am 14.1 WSW 4 5 1016.6 - 0.0 - - 10 - - - -
28/07:30am 14.0 WSW 3 5 1016.6 - 0.0 - Partly cloudy 10 - - - -
28/07:00am 14.2 CALM 0 4 1016.5 - 0.0 - Partly cloudy 10 - - - -
28/06:30am 15.2 S 6 9 1016.3 - 0.0 - - 10 - - - -
28/06:00am 15.6 SSW 8 9 1016.0 - 0.0 - - 10 - - - -
28/05:30am 16.1 SSW 10 12 1015.9 - 0.0 - Partly cloudy 10 - - - -
28/05:00am 16.1 SSW 9 11 1015.7 - 0.0 - - 10 - - - -
28/04:30am 16.4 SSW 9 11 1015.8 - 0.0 - - 10 - - - -
28/04:00am 16.7 SSW 9 10 1015.9 - 0.0 - Partly cloudy 10 - - - -
28/03:30am 16.7 SSW 7 8 1016.2 - 0.0 - Partly cloudy 10 - - - -
28/03:00am 17.7 SSE 10 12 1016.2 - 0.0 - Partly cloudy 10 - - - -
28/02:30am 18.0 SE 9 12 1016.2 - 0.0 - Partly cloudy 10 - - - -
28/02:00am 18.6 S 11 15 1016.0 - 0.0 - - 10 - - - -
28/01:30am 19.0 S 14 17 1016.0 - 0.0 - - 10 - - - -
28/01:00am 19.5 S 15 18 1015.9 - 0.0 - - 10 - - - -
28/12:30am 19.8 S 12 16 1016.1 - 0.0 - - 10 - - - -
28/12:00am 18.9 SW 8 12 1016.4 - 0.0 - - 10 - - - -
 
Date/Time
CDT
Temp
°C
Wind Pressure Rain since
9am
mm
Weather Cloud Vis
km
Sea
Height
m
Swell
Dir  Spd
kts
Gust
kts
hPa Trend Height
m
Period
s
Dir
27/11:30pm 19.6 SW 11 15 1016.5 - 0.0 - - 10 - - - -
27/11:00pm 20.2 SSW 9 12 1016.5 - 0.0 - - 10 - - - -
27/10:30pm 20.8 S 12 15 1016.1 - 0.0 - - 10 - - - -
27/10:00pm 21.0 SSE 13 17 1016.0 - 0.0 - - 10 - - - -
27/09:30pm 21.0 SSE 13 15 1016.0 - 0.0 - - 10 - - - -
27/09:00pm 21.0 S 12 16 1015.7 - 0.0 - - 10 - - - -
27/08:30pm 21.5 SSE 15 19 1015.4 - 0.0 - - 10 - - - -
27/08:00pm 21.8 SE 15 21 1015.1 - 0.0 - - 10 - - - -
27/07:30pm 22.2 SE 15 19 1015.0 - 0.0 - - 10 - - - -
27/07:00pm 23.2 SE 17 21 1014.7 - 0.0 - - 10 - - - -
27/06:30pm 23.6 SE 19 24 1014.3 - 0.0 - - 10 - - - -
27/06:00pm 24.2 SE 20 25 1014.1 - 0.0 - - 10 - - - -
27/05:30pm 25.0 SE 18 23 1013.7 - 0.0 - - 10 - - - -
27/05:00pm 23.8 SE 20 25 1013.7 - 0.0 - - 10 - - - -
27/04:30pm 25.5 ESE 18 24 1013.8 - 0.0 - - 10 - - - -
27/04:00pm 24.1 ESE 21 26 1013.6 - 0.0 - - 10 - - - -
27/03:30pm 24.6 ESE 20 27 1013.7 - 0.0 - - 10 - - - -

Other Formats:

Comma delimited format used in spreadsheet applications
http://www.bom.gov.au/fwo/IDS60701/IDS60701.95666.axf

JavaScript Object Notation format (JSON) in row-major order
http://www.bom.gov.au/fwo/IDS60701/IDS60701.95666.json